sensor_id;sensor_type;location;lat;lon;timestamp;P1;durP1;ratioP1;P2;durP2;ratioP2
76761;SDS011;65705;51.032;13.790;2023-07-13T00:00:35;1.98;;;1.33;;
76761;SDS011;65705;51.032;13.790;2023-07-13T00:03:02;4.60;;;1.45;;
76761;SDS011;65705;51.032;13.790;2023-07-13T00:05:28;3.70;;;1.30;;
76761;SDS011;65705;51.032;13.790;2023-07-13T00:07:54;3.55;;;1.27;;
76761;SDS011;65705;51.032;13.790;2023-07-13T00:10:20;6.35;;;1.60;;
76761;SDS011;65705;51.032;13.790;2023-07-13T00:12:46;7.05;;;1.50;;
76761;SDS011;65705;51.032;13.790;2023-07-13T00:15:14;4.07;;;1.40;;
76761;SDS011;65705;51.032;13.790;2023-07-13T00:17:54;2.72;;;1.48;;
76761;SDS011;65705;51.032;13.790;2023-07-13T00:20:21;4.40;;;1.60;;
76761;SDS011;65705;51.032;13.790;2023-07-13T00:22:50;2.72;;;1.27;;
76761;SDS011;65705;51.032;13.790;2023-07-13T00:25:19;4.45;;;1.33;;
76761;SDS011;65705;51.032;13.790;2023-07-13T00:27:46;3.90;;;1.30;;
76761;SDS011;65705;51.032;13.790;2023-07-13T00:30:16;2.70;;;1.45;;
76761;SDS011;65705;51.032;13.790;2023-07-13T00:32:42;2.90;;;1.25;;
76761;SDS011;65705;51.032;13.790;2023-07-13T00:35:08;3.78;;;1.58;;
76761;SDS011;65705;51.032;13.790;2023-07-13T00:37:34;4.13;;;1.25;;
76761;SDS011;65705;51.032;13.790;2023-07-13T00:40:02;8.77;;;1.52;;
76761;SDS011;65705;51.032;13.790;2023-07-13T00:42:30;2.58;;;1.50;;
76761;SDS011;65705;51.032;13.790;2023-07-13T00:47:36;6.68;;;1.63;;
76761;SDS011;65705;51.032;13.790;2023-07-13T00:50:02;3.05;;;1.50;;
76761;SDS011;65705;51.032;13.790;2023-07-13T00:52:30;2.85;;;1.40;;
76761;SDS011;65705;51.032;13.790;2023-07-13T00:54:56;2.78;;;1.42;;
76761;SDS011;65705;51.032;13.790;2023-07-13T00:57:23;8.52;;;1.48;;
76761;SDS011;65705;51.032;13.790;2023-07-13T00:59:51;4.07;;;1.52;;
76761;SDS011;65705;51.032;13.790;2023-07-13T01:02:20;3.72;;;1.58;;
76761;SDS011;65705;51.032;13.790;2023-07-13T01:04:47;7.50;;;1.88;;
76761;SDS011;65705;51.032;13.790;2023-07-13T01:07:13;4.97;;;1.83;;
76761;SDS011;65705;51.032;13.790;2023-07-13T01:09:39;5.13;;;1.58;;
76761;SDS011;65705;51.032;13.790;2023-07-13T01:12:05;4.78;;;2.03;;
76761;SDS011;65705;51.032;13.790;2023-07-13T01:14:32;4.53;;;1.70;;
76761;SDS011;65705;51.032;13.790;2023-07-13T01:16:58;6.68;;;2.00;;
76761;SDS011;65705;51.032;13.790;2023-07-13T01:24:37;4.80;;;1.92;;
76761;SDS011;65705;51.032;13.790;2023-07-13T01:27:05;3.78;;;1.90;;
76761;SDS011;65705;51.032;13.790;2023-07-13T01:29:32;4.07;;;2.00;;
76761;SDS011;65705;51.032;13.790;2023-07-13T01:31:59;5.63;;;1.73;;
76761;SDS011;65705;51.032;13.790;2023-07-13T01:34:26;7.72;;;2.00;;
76761;SDS011;65705;51.032;13.790;2023-07-13T01:36:52;7.63;;;2.08;;
76761;SDS011;65705;51.032;13.790;2023-07-13T01:39:22;4.72;;;2.05;;
76761;SDS011;65705;51.032;13.790;2023-07-13T01:41:48;5.43;;;2.10;;
76761;SDS011;65705;51.032;13.790;2023-07-13T01:44:14;6.72;;;2.28;;
76761;SDS011;65705;51.032;13.790;2023-07-13T01:46:40;7.35;;;2.15;;
76761;SDS011;65705;51.032;13.790;2023-07-13T01:49:06;6.90;;;2.38;;
76761;SDS011;65705;51.032;13.790;2023-07-13T01:51:31;4.63;;;1.80;;
76761;SDS011;65705;51.032;13.790;2023-07-13T01:53:57;6.57;;;2.10;;
76761;SDS011;65705;51.032;13.790;2023-07-13T01:56:23;5.15;;;2.15;;
76761;SDS011;65705;51.032;13.790;2023-07-13T01:58:48;5.07;;;2.53;;
76761;SDS011;65705;51.032;13.790;2023-07-13T02:01:14;6.57;;;2.67;;
76761;SDS011;65705;51.032;13.790;2023-07-13T02:03:40;4.75;;;2.05;;
76761;SDS011;65705;51.032;13.790;2023-07-13T02:06:06;4.95;;;2.00;;
76761;SDS011;65705;51.032;13.790;2023-07-13T02:08:32;5.53;;;2.10;;
76761;SDS011;65705;51.032;13.790;2023-07-13T02:10:59;4.30;;;2.08;;
76761;SDS011;65705;51.032;13.790;2023-07-13T02:13:25;5.53;;;2.47;;
76761;SDS011;65705;51.032;13.790;2023-07-13T02:15:51;4.70;;;2.10;;
76761;SDS011;65705;51.032;13.790;2023-07-13T02:18:17;5.57;;;2.05;;
76761;SDS011;65705;51.032;13.790;2023-07-13T02:20:43;7.80;;;2.40;;
76761;SDS011;65705;51.032;13.790;2023-07-13T02:23:09;4.85;;;2.60;;
76761;SDS011;65705;51.032;13.790;2023-07-13T02:25:35;3.53;;;2.20;;
76761;SDS011;65705;51.032;13.790;2023-07-13T02:28:01;5.80;;;2.10;;
76761;SDS011;65705;51.032;13.790;2023-07-13T02:30:27;5.55;;;2.22;;
76761;SDS011;65705;51.032;13.790;2023-07-13T02:32:55;4.22;;;2.03;;
76761;SDS011;65705;51.032;13.790;2023-07-13T02:35:23;6.35;;;2.10;;
76761;SDS011;65705;51.032;13.790;2023-07-13T02:37:49;5.57;;;2.53;;
76761;SDS011;65705;51.032;13.790;2023-07-13T02:40:15;4.13;;;2.30;;
76761;SDS011;65705;51.032;13.790;2023-07-13T02:42:41;5.25;;;2.25;;
76761;SDS011;65705;51.032;13.790;2023-07-13T02:45:07;6.82;;;2.30;;
76761;SDS011;65705;51.032;13.790;2023-07-13T02:47:35;6.50;;;2.70;;
76761;SDS011;65705;51.032;13.790;2023-07-13T02:50:02;4.50;;;2.20;;
76761;SDS011;65705;51.032;13.790;2023-07-13T02:52:28;8.07;;;3.05;;
76761;SDS011;65705;51.032;13.790;2023-07-13T02:54:54;6.22;;;2.30;;
76761;SDS011;65705;51.032;13.790;2023-07-13T02:57:19;6.10;;;2.22;;
76761;SDS011;65705;51.032;13.790;2023-07-13T02:59:45;6.53;;;2.50;;
76761;SDS011;65705;51.032;13.790;2023-07-13T03:02:11;6.22;;;2.63;;
76761;SDS011;65705;51.032;13.790;2023-07-13T03:04:37;6.82;;;2.78;;
76761;SDS011;65705;51.032;13.790;2023-07-13T03:07:03;6.25;;;3.10;;
76761;SDS011;65705;51.032;13.790;2023-07-13T03:09:34;8.02;;;2.67;;
76761;SDS011;65705;51.032;13.790;2023-07-13T03:12:03;5.93;;;2.38;;
76761;SDS011;65705;51.032;13.790;2023-07-13T03:14:31;6.70;;;2.55;;
76761;SDS011;65705;51.032;13.790;2023-07-13T03:16:59;6.68;;;2.60;;
76761;SDS011;65705;51.032;13.790;2023-07-13T03:19:27;6.90;;;2.80;;
76761;SDS011;65705;51.032;13.790;2023-07-13T03:21:54;10.30;;;2.70;;
76761;SDS011;65705;51.032;13.790;2023-07-13T03:24:20;5.00;;;2.70;;
76761;SDS011;65705;51.032;13.790;2023-07-13T03:26:50;7.05;;;2.80;;
76761;SDS011;65705;51.032;13.790;2023-07-13T03:29:17;5.43;;;2.60;;
76761;SDS011;65705;51.032;13.790;2023-07-13T03:31:43;6.95;;;2.60;;
76761;SDS011;65705;51.032;13.790;2023-07-13T03:34:09;6.70;;;3.10;;
76761;SDS011;65705;51.032;13.790;2023-07-13T03:36:36;7.80;;;2.33;;
76761;SDS011;65705;51.032;13.790;2023-07-13T03:39:05;7.30;;;2.70;;
76761;SDS011;65705;51.032;13.790;2023-07-13T03:41:54;11.82;;;2.45;;
76761;SDS011;65705;51.032;13.790;2023-07-13T03:44:20;6.55;;;2.42;;
76761;SDS011;65705;51.032;13.790;2023-07-13T03:46:51;6.88;;;2.92;;
76761;SDS011;65705;51.032;13.790;2023-07-13T03:49:17;8.27;;;2.55;;
76761;SDS011;65705;51.032;13.790;2023-07-13T03:51:43;8.10;;;3.00;;
76761;SDS011;65705;51.032;13.790;2023-07-13T03:54:09;6.35;;;2.38;;
76761;SDS011;65705;51.032;13.790;2023-07-13T03:56:34;4.63;;;2.53;;
76761;SDS011;65705;51.032;13.790;2023-07-13T03:59:02;4.75;;;2.42;;
76761;SDS011;65705;51.032;13.790;2023-07-13T04:01:29;8.52;;;2.78;;
76761;SDS011;65705;51.032;13.790;2023-07-13T04:03:55;4.70;;;2.55;;
76761;SDS011;65705;51.032;13.790;2023-07-13T04:06:27;6.40;;;2.88;;
76761;SDS011;65705;51.032;13.790;2023-07-13T04:08:55;6.75;;;2.72;;
76761;SDS011;65705;51.032;13.790;2023-07-13T04:11:25;5.28;;;2.30;;
76761;SDS011;65705;51.032;13.790;2023-07-13T04:13:53;5.90;;;2.30;;
76761;SDS011;65705;51.032;13.790;2023-07-13T04:16:19;5.38;;;2.50;;
76761;SDS011;65705;51.032;13.790;2023-07-13T04:18:45;4.38;;;2.30;;
76761;SDS011;65705;51.032;13.790;2023-07-13T04:21:12;6.00;;;2.55;;
76761;SDS011;65705;51.032;13.790;2023-07-13T04:23:38;10.43;;;2.33;;
76761;SDS011;65705;51.032;13.790;2023-07-13T04:26:05;5.38;;;2.80;;
76761;SDS011;65705;51.032;13.790;2023-07-13T04:28:31;5.07;;;2.40;;
76761;SDS011;65705;51.032;13.790;2023-07-13T04:30:57;7.03;;;2.75;;
76761;SDS011;65705;51.032;13.790;2023-07-13T04:33:23;4.93;;;2.47;;
76761;SDS011;65705;51.032;13.790;2023-07-13T04:35:49;8.57;;;2.70;;
76761;SDS011;65705;51.032;13.790;2023-07-13T04:38:20;5.63;;;2.40;;
76761;SDS011;65705;51.032;13.790;2023-07-13T04:40:46;7.35;;;2.60;;
76761;SDS011;65705;51.032;13.790;2023-07-13T04:43:12;6.40;;;2.80;;
76761;SDS011;65705;51.032;13.790;2023-07-13T04:45:38;5.18;;;2.60;;
76761;SDS011;65705;51.032;13.790;2023-07-13T04:48:04;9.27;;;2.97;;
76761;SDS011;65705;51.032;13.790;2023-07-13T04:50:30;9.40;;;3.47;;
76761;SDS011;65705;51.032;13.790;2023-07-13T04:52:56;8.27;;;3.00;;
76761;SDS011;65705;51.032;13.790;2023-07-13T04:55:21;5.90;;;2.67;;
76761;SDS011;65705;51.032;13.790;2023-07-13T04:57:47;9.10;;;2.53;;
76761;SDS011;65705;51.032;13.790;2023-07-13T05:00:13;6.10;;;2.40;;
76761;SDS011;65705;51.032;13.790;2023-07-13T05:02:42;8.93;;;2.78;;
76761;SDS011;65705;51.032;13.790;2023-07-13T05:05:09;7.35;;;2.80;;
76761;SDS011;65705;51.032;13.790;2023-07-13T05:07:35;8.60;;;2.80;;
76761;SDS011;65705;51.032;13.790;2023-07-13T05:10:02;4.60;;;2.60;;
76761;SDS011;65705;51.032;13.790;2023-07-13T05:12:29;7.10;;;2.92;;
76761;SDS011;65705;51.032;13.790;2023-07-13T05:14:55;4.65;;;2.58;;
76761;SDS011;65705;51.032;13.790;2023-07-13T05:17:21;9.20;;;2.83;;
76761;SDS011;65705;51.032;13.790;2023-07-13T05:19:47;8.77;;;2.85;;
76761;SDS011;65705;51.032;13.790;2023-07-13T05:22:13;5.35;;;2.63;;
76761;SDS011;65705;51.032;13.790;2023-07-13T05:24:39;4.78;;;2.47;;
76761;SDS011;65705;51.032;13.790;2023-07-13T05:27:04;6.18;;;2.53;;
76761;SDS011;65705;51.032;13.790;2023-07-13T05:29:31;6.60;;;2.65;;
76761;SDS011;65705;51.032;13.790;2023-07-13T05:31:56;6.03;;;2.50;;
76761;SDS011;65705;51.032;13.790;2023-07-13T05:34:22;6.20;;;2.40;;
76761;SDS011;65705;51.032;13.790;2023-07-13T05:36:48;7.05;;;2.70;;
76761;SDS011;65705;51.032;13.790;2023-07-13T05:39:14;5.97;;;3.08;;
76761;SDS011;65705;51.032;13.790;2023-07-13T05:41:41;8.70;;;3.05;;
76761;SDS011;65705;51.032;13.790;2023-07-13T05:44:07;6.97;;;2.80;;
76761;SDS011;65705;51.032;13.790;2023-07-13T05:46:32;9.35;;;2.80;;
76761;SDS011;65705;51.032;13.790;2023-07-13T05:48:59;8.73;;;3.05;;
76761;SDS011;65705;51.032;13.790;2023-07-13T05:51:24;6.47;;;3.10;;
76761;SDS011;65705;51.032;13.790;2023-07-13T05:53:50;8.88;;;2.85;;
76761;SDS011;65705;51.032;13.790;2023-07-13T05:56:16;10.55;;;3.97;;
76761;SDS011;65705;51.032;13.790;2023-07-13T05:58:42;8.63;;;3.25;;
76761;SDS011;65705;51.032;13.790;2023-07-13T06:01:12;8.93;;;3.45;;
76761;SDS011;65705;51.032;13.790;2023-07-13T06:03:39;6.05;;;2.83;;
76761;SDS011;65705;51.032;13.790;2023-07-13T06:06:05;4.93;;;2.67;;
76761;SDS011;65705;51.032;13.790;2023-07-13T06:08:32;9.63;;;3.03;;
76761;SDS011;65705;51.032;13.790;2023-07-13T06:11:06;8.70;;;2.97;;
76761;SDS011;65705;51.032;13.790;2023-07-13T06:13:43;5.93;;;2.63;;
76761;SDS011;65705;51.032;13.790;2023-07-13T06:16:08;5.65;;;2.78;;
76761;SDS011;65705;51.032;13.790;2023-07-13T06:18:35;5.30;;;2.55;;
76761;SDS011;65705;51.032;13.790;2023-07-13T06:21:08;8.95;;;2.92;;
76761;SDS011;65705;51.032;13.790;2023-07-13T06:23:36;13.25;;;5.72;;
76761;SDS011;65705;51.032;13.790;2023-07-13T06:26:03;7.60;;;3.17;;
76761;SDS011;65705;51.032;13.790;2023-07-13T06:28:29;6.03;;;2.92;;
76761;SDS011;65705;51.032;13.790;2023-07-13T06:30:57;6.65;;;2.60;;
76761;SDS011;65705;51.032;13.790;2023-07-13T06:33:24;6.80;;;2.55;;
76761;SDS011;65705;51.032;13.790;2023-07-13T06:35:50;9.90;;;2.72;;
76761;SDS011;65705;51.032;13.790;2023-07-13T06:38:15;5.75;;;2.75;;
76761;SDS011;65705;51.032;13.790;2023-07-13T06:40:41;6.47;;;2.92;;
76761;SDS011;65705;51.032;13.790;2023-07-13T06:43:07;5.38;;;2.08;;
76761;SDS011;65705;51.032;13.790;2023-07-13T06:45:40;8.35;;;2.20;;
76761;SDS011;65705;51.032;13.790;2023-07-13T06:48:18;5.32;;;2.03;;
76761;SDS011;65705;51.032;13.790;2023-07-13T06:50:45;7.80;;;2.08;;
76761;SDS011;65705;51.032;13.790;2023-07-13T06:53:12;7.40;;;1.75;;
76761;SDS011;65705;51.032;13.790;2023-07-13T06:55:38;6.13;;;1.85;;
76761;SDS011;65705;51.032;13.790;2023-07-13T06:58:04;4.70;;;1.80;;
76761;SDS011;65705;51.032;13.790;2023-07-13T07:00:31;10.30;;;1.80;;
76761;SDS011;65705;51.032;13.790;2023-07-13T07:02:57;4.40;;;1.75;;
76761;SDS011;65705;51.032;13.790;2023-07-13T07:05:23;4.45;;;1.90;;
76761;SDS011;65705;51.032;13.790;2023-07-13T07:07:52;7.95;;;2.40;;
76761;SDS011;65705;51.032;13.790;2023-07-13T07:10:20;8.75;;;2.15;;
76761;SDS011;65705;51.032;13.790;2023-07-13T07:12:46;5.30;;;2.08;;
76761;SDS011;65705;51.032;13.790;2023-07-13T07:15:12;6.55;;;1.83;;
76761;SDS011;65705;51.032;13.790;2023-07-13T07:17:39;3.92;;;1.60;;
76761;SDS011;65705;51.032;13.790;2023-07-13T07:20:05;4.68;;;1.80;;
76761;SDS011;65705;51.032;13.790;2023-07-13T07:22:31;6.03;;;1.98;;
76761;SDS011;65705;51.032;13.790;2023-07-13T07:24:57;7.85;;;1.70;;
76761;SDS011;65705;51.032;13.790;2023-07-13T07:27:23;6.80;;;1.90;;
76761;SDS011;65705;51.032;13.790;2023-07-13T07:29:49;6.97;;;1.67;;
76761;SDS011;65705;51.032;13.790;2023-07-13T07:32:15;7.90;;;2.10;;
76761;SDS011;65705;51.032;13.790;2023-07-13T07:34:41;3.42;;;1.77;;
76761;SDS011;65705;51.032;13.790;2023-07-13T07:37:10;6.75;;;1.80;;
76761;SDS011;65705;51.032;13.790;2023-07-13T07:39:36;4.80;;;2.17;;
76761;SDS011;65705;51.032;13.790;2023-07-13T07:42:03;6.72;;;3.22;;
76761;SDS011;65705;51.032;13.790;2023-07-13T07:44:32;6.93;;;2.40;;
76761;SDS011;65705;51.032;13.790;2023-07-13T07:49:25;5.47;;;1.73;;
76761;SDS011;65705;51.032;13.790;2023-07-13T07:51:50;4.82;;;1.95;;
76761;SDS011;65705;51.032;13.790;2023-07-13T07:54:16;3.80;;;1.10;;
76761;SDS011;65705;51.032;13.790;2023-07-13T07:56:42;4.43;;;1.60;;
76761;SDS011;65705;51.032;13.790;2023-07-13T07:59:08;4.75;;;1.30;;
76761;SDS011;65705;51.032;13.790;2023-07-13T08:01:35;4.72;;;1.30;;
76761;SDS011;65705;51.032;13.790;2023-07-13T08:04:01;3.92;;;1.23;;
76761;SDS011;65705;51.032;13.790;2023-07-13T08:06:27;3.92;;;1.60;;
76761;SDS011;65705;51.032;13.790;2023-07-13T08:08:53;7.03;;;1.70;;
76761;SDS011;65705;51.032;13.790;2023-07-13T08:11:20;7.30;;;1.77;;
76761;SDS011;65705;51.032;13.790;2023-07-13T08:13:47;4.95;;;1.40;;
76761;SDS011;65705;51.032;13.790;2023-07-13T08:16:12;4.38;;;1.63;;
76761;SDS011;65705;51.032;13.790;2023-07-13T08:18:38;5.15;;;1.55;;
76761;SDS011;65705;51.032;13.790;2023-07-13T08:21:05;5.45;;;1.33;;
76761;SDS011;65705;51.032;13.790;2023-07-13T08:23:31;6.70;;;1.63;;
76761;SDS011;65705;51.032;13.790;2023-07-13T08:25:57;4.70;;;1.48;;
76761;SDS011;65705;51.032;13.790;2023-07-13T08:28:24;4.10;;;1.27;;
76761;SDS011;65705;51.032;13.790;2023-07-13T08:30:50;3.65;;;1.33;;
76761;SDS011;65705;51.032;13.790;2023-07-13T08:33:17;5.47;;;1.55;;
76761;SDS011;65705;51.032;13.790;2023-07-13T08:35:47;8.13;;;1.40;;
76761;SDS011;65705;51.032;13.790;2023-07-13T08:38:14;3.47;;;1.40;;
76761;SDS011;65705;51.032;13.790;2023-07-13T08:40:41;3.78;;;1.45;;
76761;SDS011;65705;51.032;13.790;2023-07-13T08:43:13;4.38;;;1.17;;
76761;SDS011;65705;51.032;13.790;2023-07-13T08:45:46;5.40;;;1.30;;
76761;SDS011;65705;51.032;13.790;2023-07-13T08:48:18;5.57;;;1.60;;
76761;SDS011;65705;51.032;13.790;2023-07-13T08:50:58;5.68;;;1.30;;
76761;SDS011;65705;51.032;13.790;2023-07-13T08:53:36;6.40;;;1.40;;
76761;SDS011;65705;51.032;13.790;2023-07-13T08:56:04;4.22;;;1.33;;
76761;SDS011;65705;51.032;13.790;2023-07-13T08:58:36;3.33;;;1.40;;
76761;SDS011;65705;51.032;13.790;2023-07-13T09:01:14;8.50;;;1.65;;
76761;SDS011;65705;51.032;13.790;2023-07-13T09:03:58;4.95;;;1.80;;
76761;SDS011;65705;51.032;13.790;2023-07-13T09:06:46;5.70;;;1.27;;
76761;SDS011;65705;51.032;13.790;2023-07-13T09:14:52;4.25;;;1.30;;
76761;SDS011;65705;51.032;13.790;2023-07-13T09:17:26;3.40;;;1.10;;
76761;SDS011;65705;51.032;13.790;2023-07-13T09:22:42;3.20;;;1.02;;
76761;SDS011;65705;51.032;13.790;2023-07-13T09:27:49;4.97;;;1.25;;
76761;SDS011;65705;51.032;13.790;2023-07-13T09:30:23;4.25;;;1.10;;
76761;SDS011;65705;51.032;13.790;2023-07-13T09:32:55;5.30;;;1.60;;
76761;SDS011;65705;51.032;13.790;2023-07-13T09:35:27;5.35;;;1.80;;
76761;SDS011;65705;51.032;13.790;2023-07-13T09:41:13;3.20;;;1.20;;
76761;SDS011;65705;51.032;13.790;2023-07-13T09:44:01;3.22;;;1.10;;
76761;SDS011;65705;51.032;13.790;2023-07-13T09:46:34;3.05;;;0.93;;
76761;SDS011;65705;51.032;13.790;2023-07-13T09:49:00;3.15;;;1.13;;
76761;SDS011;65705;51.032;13.790;2023-07-13T09:51:26;6.07;;;1.38;;
76761;SDS011;65705;51.032;13.790;2023-07-13T09:53:52;3.83;;;1.15;;
76761;SDS011;65705;51.032;13.790;2023-07-13T09:56:18;4.60;;;1.10;;
76761;SDS011;65705;51.032;13.790;2023-07-13T09:58:48;4.97;;;1.20;;
76761;SDS011;65705;51.032;13.790;2023-07-13T10:01:14;3.63;;;1.20;;
76761;SDS011;65705;51.032;13.790;2023-07-13T10:03:51;3.47;;;1.02;;
76761;SDS011;65705;51.032;13.790;2023-07-13T10:06:20;4.18;;;1.80;;
76761;SDS011;65705;51.032;13.790;2023-07-13T10:08:51;7.63;;;2.40;;
76761;SDS011;65705;51.032;13.790;2023-07-13T10:11:22;3.80;;;1.52;;
76761;SDS011;65705;51.032;13.790;2023-07-13T10:13:58;5.55;;;1.75;;
76761;SDS011;65705;51.032;13.790;2023-07-13T10:16:33;4.32;;;1.60;;
76761;SDS011;65705;51.032;13.790;2023-07-13T10:19:11;5.07;;;1.38;;
76761;SDS011;65705;51.032;13.790;2023-07-13T10:21:49;6.05;;;1.42;;
76761;SDS011;65705;51.032;13.790;2023-07-13T10:24:27;5.80;;;1.60;;
76761;SDS011;65705;51.032;13.790;2023-07-13T10:29:53;4.68;;;1.30;;
76761;SDS011;65705;51.032;13.790;2023-07-13T10:32:27;7.85;;;1.45;;
76761;SDS011;65705;51.032;13.790;2023-07-13T10:34:53;5.25;;;1.50;;
76761;SDS011;65705;51.032;13.790;2023-07-13T10:37:29;4.75;;;1.33;;
76761;SDS011;65705;51.032;13.790;2023-07-13T10:39:58;3.25;;;1.60;;
76761;SDS011;65705;51.032;13.790;2023-07-13T10:42:27;4.47;;;1.30;;
76761;SDS011;65705;51.032;13.790;2023-07-13T10:44:57;3.95;;;1.40;;
76761;SDS011;65705;51.032;13.790;2023-07-13T10:47:23;3.95;;;1.33;;
76761;SDS011;65705;51.032;13.790;2023-07-13T10:49:53;4.43;;;1.20;;
76761;SDS011;65705;51.032;13.790;2023-07-13T10:58:14;7.13;;;1.90;;
76761;SDS011;65705;51.032;13.790;2023-07-13T11:00:56;6.60;;;1.42;;
76761;SDS011;65705;51.032;13.790;2023-07-13T11:03:28;3.28;;;1.23;;
76761;SDS011;65705;51.032;13.790;2023-07-13T11:13:56;5.50;;;1.17;;
76761;SDS011;65705;51.032;13.790;2023-07-13T11:21:28;6.85;;;1.33;;
76761;SDS011;65705;51.032;13.790;2023-07-13T11:24:14;3.58;;;1.00;;
76761;SDS011;65705;51.032;13.790;2023-07-13T11:29:23;2.75;;;1.00;;
76761;SDS011;65705;51.032;13.790;2023-07-13T11:31:59;3.97;;;1.70;;
76761;SDS011;65705;51.032;13.790;2023-07-13T11:34:27;5.28;;;2.40;;
76761;SDS011;65705;51.032;13.790;2023-07-13T11:36:57;12.00;;;2.08;;
76761;SDS011;65705;51.032;13.790;2023-07-13T11:39:32;4.55;;;1.30;;
76761;SDS011;65705;51.032;13.790;2023-07-13T11:42:01;4.40;;;1.33;;
76761;SDS011;65705;51.032;13.790;2023-07-13T11:44:33;4.28;;;1.08;;
76761;SDS011;65705;51.032;13.790;2023-07-13T11:47:07;5.22;;;1.40;;
76761;SDS011;65705;51.032;13.790;2023-07-13T11:49:42;4.13;;;1.23;;
76761;SDS011;65705;51.032;13.790;2023-07-13T11:52:13;5.47;;;1.55;;
76761;SDS011;65705;51.032;13.790;2023-07-13T11:54:50;4.05;;;1.38;;
76761;SDS011;65705;51.032;13.790;2023-07-13T11:59:53;4.70;;;1.33;;
76761;SDS011;65705;51.032;13.790;2023-07-13T12:02:31;6.45;;;1.20;;
76761;SDS011;65705;51.032;13.790;2023-07-13T12:04:59;6.88;;;1.70;;
76761;SDS011;65705;51.032;13.790;2023-07-13T12:07:28;6.22;;;1.67;;
76761;SDS011;65705;51.032;13.790;2023-07-13T12:10:00;5.18;;;1.25;;
76761;SDS011;65705;51.032;13.790;2023-07-13T12:12:54;4.20;;;1.60;;
76761;SDS011;65705;51.032;13.790;2023-07-13T12:15:22;6.95;;;1.20;;
76761;SDS011;65705;51.032;13.790;2023-07-13T12:17:52;5.35;;;1.17;;
76761;SDS011;65705;51.032;13.790;2023-07-13T12:20:23;5.10;;;1.27;;
76761;SDS011;65705;51.032;13.790;2023-07-13T12:22:59;2.72;;;0.98;;
76761;SDS011;65705;51.032;13.790;2023-07-13T12:25:24;4.20;;;1.10;;
76761;SDS011;65705;51.032;13.790;2023-07-13T12:27:51;4.05;;;1.20;;
76761;SDS011;65705;51.032;13.790;2023-07-13T12:30:28;5.82;;;1.40;;
76761;SDS011;65705;51.032;13.790;2023-07-13T12:33:02;7.75;;;1.55;;
76761;SDS011;65705;51.032;13.790;2023-07-13T12:35:42;3.55;;;1.50;;
76761;SDS011;65705;51.032;13.790;2023-07-13T12:38:12;4.38;;;1.20;;
76761;SDS011;65705;51.032;13.790;2023-07-13T12:40:38;4.07;;;1.20;;
76761;SDS011;65705;51.032;13.790;2023-07-13T12:43:10;3.58;;;1.00;;
76761;SDS011;65705;51.032;13.790;2023-07-13T12:45:37;4.90;;;1.25;;
76761;SDS011;65705;51.032;13.790;2023-07-13T12:48:05;5.43;;;1.58;;
76761;SDS011;65705;51.032;13.790;2023-07-13T12:50:40;5.03;;;1.00;;
76761;SDS011;65705;51.032;13.790;2023-07-13T12:53:14;4.05;;;1.40;;
76761;SDS011;65705;51.032;13.790;2023-07-13T12:55:46;5.22;;;1.55;;
76761;SDS011;65705;51.032;13.790;2023-07-13T12:58:38;5.97;;;1.98;;
76761;SDS011;65705;51.032;13.790;2023-07-13T13:01:11;5.63;;;1.15;;
76761;SDS011;65705;51.032;13.790;2023-07-13T13:03:40;4.97;;;1.27;;
76761;SDS011;65705;51.032;13.790;2023-07-13T13:08:45;6.10;;;1.17;;
76761;SDS011;65705;51.032;13.790;2023-07-13T13:11:14;4.55;;;1.00;;
76761;SDS011;65705;51.032;13.790;2023-07-13T13:13:41;5.30;;;1.02;;
76761;SDS011;65705;51.032;13.790;2023-07-13T13:16:12;8.10;;;2.45;;
76761;SDS011;65705;51.032;13.790;2023-07-13T13:18:44;5.03;;;1.27;;
76761;SDS011;65705;51.032;13.790;2023-07-13T13:21:10;3.13;;;1.20;;
76761;SDS011;65705;51.032;13.790;2023-07-13T13:23:36;7.13;;;1.17;;
76761;SDS011;65705;51.032;13.790;2023-07-13T13:26:02;4.25;;;1.42;;
76761;SDS011;65705;51.032;13.790;2023-07-13T13:28:31;3.85;;;1.20;;
76761;SDS011;65705;51.032;13.790;2023-07-13T13:30:58;5.63;;;1.13;;
76761;SDS011;65705;51.032;13.790;2023-07-13T13:33:24;5.03;;;1.27;;
76761;SDS011;65705;51.032;13.790;2023-07-13T13:35:49;4.15;;;1.20;;
76761;SDS011;65705;51.032;13.790;2023-07-13T13:38:18;6.72;;;1.02;;
76761;SDS011;65705;51.032;13.790;2023-07-13T13:40:49;7.45;;;1.42;;
76761;SDS011;65705;51.032;13.790;2023-07-13T13:43:16;6.93;;;1.17;;
76761;SDS011;65705;51.032;13.790;2023-07-13T13:45:43;3.10;;;0.90;;
76761;SDS011;65705;51.032;13.790;2023-07-13T13:48:15;7.35;;;2.53;;
76761;SDS011;65705;51.032;13.790;2023-07-13T13:50:42;4.43;;;1.10;;
76761;SDS011;65705;51.032;13.790;2023-07-13T13:53:12;2.85;;;0.90;;
76761;SDS011;65705;51.032;13.790;2023-07-13T13:55:41;4.82;;;1.08;;
76761;SDS011;65705;51.032;13.790;2023-07-13T13:58:10;4.15;;;1.08;;
76761;SDS011;65705;51.032;13.790;2023-07-13T14:00:38;3.92;;;1.10;;
76761;SDS011;65705;51.032;13.790;2023-07-13T14:05:32;5.65;;;2.58;;
76761;SDS011;65705;51.032;13.790;2023-07-13T14:07:58;3.30;;;1.08;;
76761;SDS011;65705;51.032;13.790;2023-07-13T14:10:25;4.35;;;1.15;;
76761;SDS011;65705;51.032;13.790;2023-07-13T14:12:52;3.33;;;1.15;;
76761;SDS011;65705;51.032;13.790;2023-07-13T14:15:24;3.75;;;1.27;;
76761;SDS011;65705;51.032;13.790;2023-07-13T14:17:54;5.25;;;1.33;;
76761;SDS011;65705;51.032;13.790;2023-07-13T14:20:20;4.00;;;1.38;;
76761;SDS011;65705;51.032;13.790;2023-07-13T14:22:49;5.00;;;1.17;;
76761;SDS011;65705;51.032;13.790;2023-07-13T14:25:15;4.72;;;1.10;;
76761;SDS011;65705;51.032;13.790;2023-07-13T14:27:43;6.57;;;1.23;;
76761;SDS011;65705;51.032;13.790;2023-07-13T14:32:40;6.40;;;1.17;;
76761;SDS011;65705;51.032;13.790;2023-07-13T14:35:06;5.63;;;1.55;;
76761;SDS011;65705;51.032;13.790;2023-07-13T14:37:32;7.28;;;1.23;;
76761;SDS011;65705;51.032;13.790;2023-07-13T14:39:59;3.90;;;1.05;;
76761;SDS011;65705;51.032;13.790;2023-07-13T14:42:25;5.63;;;1.67;;
76761;SDS011;65705;51.032;13.790;2023-07-13T14:44:51;7.07;;;1.17;;
76761;SDS011;65705;51.032;13.790;2023-07-13T14:47:17;4.40;;;1.10;;
76761;SDS011;65705;51.032;13.790;2023-07-13T14:49:43;3.33;;;0.95;;
76761;SDS011;65705;51.032;13.790;2023-07-13T14:54:40;9.63;;;1.33;;
76761;SDS011;65705;51.032;13.790;2023-07-13T14:57:12;11.00;;;1.58;;
76761;SDS011;65705;51.032;13.790;2023-07-13T14:59:40;6.20;;;1.20;;
76761;SDS011;65705;51.032;13.790;2023-07-13T15:04:55;4.72;;;1.50;;
76761;SDS011;65705;51.032;13.790;2023-07-13T15:07:21;2.85;;;1.00;;
76761;SDS011;65705;51.032;13.790;2023-07-13T15:09:48;4.32;;;0.90;;
76761;SDS011;65705;51.032;13.790;2023-07-13T15:12:16;5.30;;;1.52;;
76761;SDS011;65705;51.032;13.790;2023-07-13T15:14:42;2.30;;;0.93;;
76761;SDS011;65705;51.032;13.790;2023-07-13T15:22:54;2.55;;;1.05;;
76761;SDS011;65705;51.032;13.790;2023-07-13T15:25:21;5.30;;;1.23;;
76761;SDS011;65705;51.032;13.790;2023-07-13T15:27:50;3.65;;;1.08;;
76761;SDS011;65705;51.032;13.790;2023-07-13T15:30:16;5.93;;;1.33;;
76761;SDS011;65705;51.032;13.790;2023-07-13T15:32:42;4.43;;;1.48;;
76761;SDS011;65705;51.032;13.790;2023-07-13T15:35:12;2.63;;;0.88;;
76761;SDS011;65705;51.032;13.790;2023-07-13T15:37:48;3.00;;;0.80;;
76761;SDS011;65705;51.032;13.790;2023-07-13T15:40:15;2.40;;;0.65;;
76761;SDS011;65705;51.032;13.790;2023-07-13T15:42:42;5.25;;;1.13;;
76761;SDS011;65705;51.032;13.790;2023-07-13T15:45:23;5.60;;;1.15;;
76761;SDS011;65705;51.032;13.790;2023-07-13T15:47:53;3.45;;;0.90;;
76761;SDS011;65705;51.032;13.790;2023-07-13T15:50:20;3.42;;;0.90;;